createdAt,value
2019-05-13T00:01:39.445Z,5.20
2019-05-13T00:04:10.512Z,4.87
2019-05-13T00:06:53.169Z,4.83
2019-05-13T00:09:14.139Z,4.30
2019-05-13T00:11:44.856Z,4.57
2019-05-13T00:14:15.343Z,4.80
2019-05-13T00:16:45.894Z,4.50
2019-05-13T00:19:16.423Z,5.37
2019-05-13T00:21:47.757Z,4.40
2019-05-13T00:24:18.264Z,5.33
2019-05-13T00:26:49.113Z,4.20
2019-05-13T00:29:19.786Z,4.57
2019-05-13T00:31:50.364Z,4.80
2019-05-13T00:34:20.898Z,4.90
2019-05-13T00:37:07.398Z,4.90
2019-05-13T00:39:24.665Z,5.07
2019-05-13T00:41:55.568Z,4.60
2019-05-13T00:44:26.657Z,4.23
2019-05-13T00:46:57.247Z,3.90
2019-05-13T00:49:27.732Z,3.93
2019-05-13T00:51:58.356Z,4.23
2019-05-13T00:54:29.577Z,3.70
2019-05-13T00:57:00.068Z,3.87
2019-05-13T00:59:33.921Z,4.20
2019-05-13T01:02:04.600Z,3.97
2019-05-13T01:04:35.060Z,4.37
2019-05-13T01:07:05.512Z,4.70
2019-05-13T01:09:36.424Z,3.70
2019-05-13T01:12:08.656Z,4.90
2019-05-13T01:14:39.206Z,4.20
2019-05-13T01:17:09.825Z,3.40
2019-05-13T01:19:43.208Z,3.93
2019-05-13T01:22:15.284Z,3.57
2019-05-13T01:24:45.789Z,3.40
2019-05-13T01:27:16.343Z,3.77
2019-05-13T01:29:46.824Z,4.10
2019-05-13T01:32:17.301Z,4.33
2019-05-13T01:34:47.800Z,3.90
2019-05-13T01:37:18.330Z,4.00
2019-05-13T01:39:48.841Z,4.47
2019-05-13T01:42:19.412Z,3.80
2019-05-13T01:44:53.393Z,4.23
2019-05-13T01:47:24.190Z,4.23
2019-05-13T01:49:54.664Z,4.10
2019-05-13T01:52:25.235Z,4.50
2019-05-13T01:54:55.740Z,4.13
2019-05-13T01:57:26.718Z,4.30
2019-05-13T01:59:57.208Z,3.90
2019-05-13T02:02:27.756Z,4.20
2019-05-13T02:04:58.460Z,3.83
2019-05-13T02:07:29.392Z,4.33
2019-05-13T02:10:00.823Z,4.10
2019-05-13T02:12:33.903Z,4.80
2019-05-13T02:15:04.796Z,4.73
2019-05-13T02:17:35.414Z,5.47
2019-05-13T02:20:06.376Z,5.20
2019-05-13T02:22:36.886Z,5.70
2019-05-13T02:25:07.640Z,4.90
2019-05-13T02:27:38.120Z,4.93
2019-05-13T02:30:08.857Z,4.97
2019-05-13T02:32:42.484Z,5.20
2019-05-13T02:35:13.914Z,5.43
2019-05-13T02:37:44.535Z,6.17
2019-05-13T02:40:15.045Z,5.07
2019-05-13T02:42:45.604Z,5.13
2019-05-13T02:45:16.118Z,4.30
2019-05-13T02:47:47.601Z,4.97
2019-05-13T02:50:18.197Z,4.73
2019-05-13T02:52:48.664Z,5.23
2019-05-13T02:55:22.150Z,4.87
2019-05-13T02:57:52.876Z,4.97
2019-05-13T03:00:23.648Z,5.67
2019-05-13T03:02:54.282Z,5.60
2019-05-13T03:05:24.828Z,6.20
2019-05-13T03:07:55.470Z,6.23
2019-05-13T03:10:26.040Z,5.50
2019-05-13T03:12:56.565Z,5.37
2019-05-13T03:15:28.662Z,4.53
2019-05-13T03:18:06.248Z,5.17
2019-05-13T03:20:37.232Z,4.63
2019-05-13T03:23:07.770Z,7.20
2019-05-13T03:25:38.412Z,6.63
2019-05-13T03:28:13.211Z,8.30
2019-05-13T03:30:45.826Z,6.33
2019-05-13T03:33:19.690Z,5.40
2019-05-13T03:35:46.881Z,5.67
2019-05-13T03:38:17.406Z,5.30
2019-05-13T03:40:48.638Z,5.97
2019-05-13T03:43:22.953Z,5.83
2019-05-13T03:45:54.906Z,6.40
2019-05-13T03:48:25.972Z,5.43
2019-05-13T03:50:57.750Z,6.13
2019-05-13T03:53:28.815Z,5.97
2019-05-13T03:56:02.330Z,5.60
2019-05-13T03:58:32.563Z,7.00
2019-05-13T04:01:03.626Z,6.70
2019-05-13T04:03:34.229Z,7.17
2019-05-13T04:06:05.286Z,6.10
2019-05-13T04:08:37.056Z,6.00
2019-05-13T04:11:08.093Z,6.17
2019-05-13T04:13:38.632Z,6.13
2019-05-13T04:16:12.380Z,5.47
2019-05-13T04:18:42.773Z,6.00
2019-05-13T04:21:13.783Z,4.93
2019-05-13T04:23:44.930Z,5.93
2019-05-13T04:26:15.859Z,5.83
2019-05-13T04:28:46.375Z,5.93
2019-05-13T04:31:16.898Z,6.77
2019-05-13T04:33:47.447Z,7.00
2019-05-13T04:36:23.024Z,6.13
2019-05-13T04:38:52.871Z,7.80
2019-05-13T04:41:23.834Z,8.20
2019-05-13T04:43:54.933Z,8.53
2019-05-13T04:46:32.795Z,7.33
2019-05-13T04:49:04.964Z,7.13
2019-05-13T04:51:47.831Z,6.50
2019-05-13T04:54:22.320Z,5.80
2019-05-13T04:56:52.716Z,6.40
2019-05-13T04:59:26.484Z,5.73
2019-05-13T05:02:49.658Z,5.87
2019-05-13T05:05:36.135Z,4.70
2019-05-13T05:08:54.151Z,4.70
2019-05-13T05:11:49.114Z,4.43
2019-05-13T05:14:45.543Z,5.83
2019-05-13T05:18:11.658Z,5.87
2019-05-13T05:21:19.161Z,5.83
2019-05-13T05:24:25.642Z,5.53
2019-05-13T05:27:52.789Z,6.40
2019-05-13T05:30:51.872Z,4.50
2019-05-13T05:34:18.812Z,5.33
2019-05-13T05:37:32.514Z,5.47
2019-05-13T05:40:04.728Z,5.23
2019-05-13T05:42:37.720Z,6.20
2019-05-13T05:45:11.470Z,5.13
2019-05-13T05:47:44.396Z,6.17
2019-05-13T05:50:14.873Z,6.33
2019-05-13T05:52:48.425Z,7.20
2019-05-13T05:55:20.834Z,6.57
2019-05-13T05:57:52.669Z,5.83
2019-05-13T06:00:23.185Z,7.70
2019-05-13T06:02:56.821Z,5.63
2019-05-13T06:05:28.060Z,6.57
2019-05-13T06:07:58.589Z,6.20
2019-05-13T06:10:42.629Z,5.63
2019-05-13T06:13:04.811Z,5.70
2019-05-13T06:15:36.324Z,4.43
2019-05-13T06:18:06.886Z,5.87
2019-05-13T06:20:37.540Z,6.07
2019-05-13T06:23:08.109Z,4.97
2019-05-13T06:25:38.662Z,5.03
2019-05-13T06:28:12.445Z,4.93
2019-05-13T06:30:42.790Z,4.20
2019-05-13T06:33:13.517Z,4.23
2019-05-13T06:35:44.966Z,4.07
2019-05-13T06:38:15.648Z,4.13
2019-05-13T06:40:59.469Z,4.17
2019-05-13T06:43:21.159Z,4.60
2019-05-13T06:45:51.520Z,4.50
2019-05-13T06:48:23.234Z,4.17
2019-05-13T06:50:54.124Z,3.67
2019-05-13T06:53:24.629Z,4.53
2019-05-13T06:55:56.029Z,4.43
2019-05-13T06:58:26.558Z,3.60
2019-05-13T07:00:58.214Z,3.30
2019-05-13T07:03:29.154Z,4.20
2019-05-13T07:06:01.843Z,3.33
2019-05-13T07:08:32.271Z,3.03
2019-05-13T07:11:17.700Z,2.70
2019-05-13T07:13:37.592Z,3.37
2019-05-13T07:16:08.119Z,3.13
2019-05-13T07:18:41.379Z,2.93
2019-05-13T07:21:12.669Z,3.00
2019-05-13T07:23:44.973Z,3.37
2019-05-13T07:26:15.969Z,3.00
2019-05-13T07:28:46.365Z,2.40
2019-05-13T07:31:17.229Z,3.03
2019-05-13T07:33:47.702Z,3.77
2019-05-13T07:36:18.946Z,3.07
2019-05-13T07:38:52.092Z,3.70
2019-05-13T07:41:35.338Z,3.30
2019-05-13T07:43:56.081Z,3.50
2019-05-13T07:46:26.982Z,3.30
2019-05-13T07:48:57.518Z,2.87
2019-05-13T07:51:28.298Z,3.23
2019-05-13T07:54:01.997Z,2.63
2019-05-13T07:56:32.564Z,2.80
2019-05-13T07:59:03.750Z,3.03
2019-05-13T08:01:35.329Z,2.57
2019-05-13T08:04:34.186Z,2.53
2019-05-13T08:07:12.212Z,2.40
2019-05-13T08:09:43.834Z,2.70
2019-05-13T08:12:31.922Z,2.57
2019-05-13T08:15:11.896Z,2.40
2019-05-13T08:17:47.335Z,2.67
2019-05-13T08:20:15.633Z,1.80
2019-05-13T08:22:46.211Z,2.67
2019-05-13T08:25:16.710Z,2.70
2019-05-13T08:27:47.276Z,3.10
2019-05-13T08:30:18.744Z,2.73
2019-05-13T08:32:49.317Z,2.27
2019-05-13T08:35:22.431Z,3.00
2019-05-13T08:37:52.648Z,2.47
2019-05-13T08:40:24.062Z,2.20
2019-05-13T08:42:55.773Z,2.63
2019-05-13T08:45:26.419Z,3.03
2019-05-13T08:47:57.381Z,2.67
2019-05-13T08:50:27.886Z,2.80
2019-05-13T08:53:01.635Z,2.30
2019-05-13T08:55:32.301Z,2.00
2019-05-13T08:58:03.273Z,2.50
2019-05-13T09:00:53.919Z,2.30
2019-05-13T09:03:25.015Z,2.40
2019-05-13T09:05:55.928Z,2.30
2019-05-13T09:08:26.823Z,2.43
2019-05-13T09:10:58.611Z,2.30
2019-05-13T09:13:29.931Z,2.97
2019-05-13T09:16:02.392Z,2.23
2019-05-13T09:18:34.034Z,2.57
2019-05-13T09:21:04.672Z,2.00
2019-05-13T09:23:35.725Z,2.13
2019-05-13T09:26:06.642Z,2.43
2019-05-13T09:28:37.477Z,2.40
2019-05-13T09:31:08.079Z,2.27
2019-05-13T09:33:38.669Z,2.30
2019-05-13T09:36:09.384Z,1.93
2019-05-13T09:38:41.878Z,2.27
2019-05-13T09:41:12.664Z,2.90
2019-05-13T09:43:43.196Z,3.00
2019-05-13T09:46:22.541Z,2.40
2019-05-13T09:49:11.521Z,2.53
2019-05-13T09:51:27.260Z,2.53
2019-05-13T09:53:58.235Z,2.23
2019-05-13T09:56:28.859Z,2.40
2019-05-13T09:59:01.658Z,1.80
2019-05-13T10:01:33.991Z,2.33
2019-05-13T10:04:06.766Z,2.03
2019-05-13T10:06:37.345Z,1.90
2019-05-13T10:09:08.851Z,1.70
2019-05-13T10:11:39.389Z,2.13
2019-05-13T10:14:11.689Z,2.20
2019-05-13T10:16:42.766Z,2.00
2019-05-13T10:19:13.357Z,2.10
2019-05-13T10:21:46.008Z,2.43
2019-05-13T10:24:17.285Z,2.00
2019-05-13T10:26:51.360Z,2.57
2019-05-13T10:29:22.363Z,2.50
2019-05-13T10:31:53.900Z,1.73
2019-05-13T10:34:24.555Z,2.07
2019-05-13T10:36:55.793Z,2.33
2019-05-13T10:39:26.415Z,2.50
2019-05-13T10:41:56.968Z,2.37
2019-05-13T10:44:30.420Z,2.43
2019-05-13T10:47:02.552Z,2.70
2019-05-13T10:49:35.130Z,2.13
2019-05-13T10:52:05.762Z,2.00
2019-05-13T10:54:36.336Z,2.37
2019-05-13T10:57:06.893Z,2.93
2019-05-13T10:59:38.095Z,2.43
2019-05-13T11:02:13.080Z,1.93
2019-05-13T11:04:42.713Z,1.73
2019-05-13T11:07:13.205Z,1.70
2019-05-13T11:09:44.191Z,2.13
2019-05-13T11:12:14.829Z,2.00
2019-05-13T11:14:46.773Z,2.03
2019-05-13T11:17:25.599Z,2.23
2019-05-13T11:19:49.677Z,2.23
2019-05-13T11:22:22.312Z,1.83
2019-05-13T11:24:54.553Z,1.97
2019-05-13T11:27:25.497Z,1.90
2019-05-13T11:29:56.018Z,1.60
2019-05-13T11:32:26.548Z,2.03
2019-05-13T11:34:57.141Z,2.10
2019-05-13T11:37:28.472Z,1.67
2019-05-13T11:40:02.883Z,1.70
2019-05-13T11:42:33.223Z,2.17
2019-05-13T11:45:03.889Z,1.80
2019-05-13T11:47:35.246Z,1.97
2019-05-13T11:50:07.150Z,2.37
2019-05-13T11:52:38.245Z,1.77
2019-05-13T11:55:12.891Z,2.40
2019-05-13T11:57:44.471Z,2.20
2019-05-13T12:00:19.475Z,1.90
2019-05-13T12:02:52.002Z,2.20
2019-05-13T12:05:22.743Z,1.77
2019-05-13T12:08:13.026Z,2.20
2019-05-13T12:10:45.481Z,1.70
2019-05-13T12:13:16.837Z,1.77
2019-05-13T12:15:49.931Z,1.47
2019-05-13T12:18:23.345Z,1.67
2019-05-13T12:20:54.231Z,2.13
2019-05-13T12:23:25.023Z,2.00
2019-05-13T12:25:55.491Z,2.23
2019-05-13T12:28:38.435Z,1.93
2019-05-13T12:31:12.171Z,1.90
2019-05-13T12:33:44.181Z,1.63
2019-05-13T12:36:17.882Z,1.70
2019-05-13T12:38:47.042Z,1.80
2019-05-13T12:41:18.776Z,1.70
2019-05-13T12:43:53.590Z,1.77
2019-05-13T12:46:24.673Z,1.60
2019-05-13T12:48:55.550Z,2.03
2019-05-13T12:51:26.180Z,1.70
2019-05-13T12:53:57.216Z,1.77
2019-05-13T12:56:27.752Z,1.60
2019-05-13T12:58:58.293Z,1.30
2019-05-13T13:01:28.777Z,2.00
2019-05-13T13:03:59.909Z,1.43
2019-05-13T13:06:40.254Z,1.63
2019-05-13T13:09:06.153Z,1.33
2019-05-13T13:11:36.749Z,1.90
2019-05-13T13:14:11.341Z,2.03
2019-05-13T13:16:42.361Z,1.93
2019-05-13T13:19:14.545Z,1.83
2019-05-13T13:21:46.097Z,1.50
2019-05-13T13:24:17.161Z,1.33
2019-05-13T13:26:47.725Z,1.40
2019-05-13T13:29:18.744Z,1.43
2019-05-13T13:31:54.043Z,1.40
2019-05-13T13:34:26.020Z,1.40
2019-05-13T13:36:54.636Z,1.50
2019-05-13T13:39:25.741Z,1.43
2019-05-13T13:41:56.872Z,1.40
2019-05-13T13:44:34.756Z,1.67
2019-05-13T13:47:02.373Z,1.53
2019-05-13T13:49:34.878Z,1.90
2019-05-13T13:52:06.052Z,1.77
2019-05-13T13:54:37.573Z,1.50
2019-05-13T13:57:08.262Z,1.50
2019-05-13T14:00:11.749Z,1.73
2019-05-13T14:02:13.441Z,1.60
2019-05-13T14:04:45.383Z,1.50
2019-05-13T14:07:26.102Z,1.37
2019-05-13T14:09:48.409Z,1.50
2019-05-13T14:12:19.073Z,2.00
2019-05-13T14:14:52.087Z,1.50
2019-05-13T14:17:22.725Z,1.47
2019-05-13T14:19:53.333Z,1.30
2019-05-13T14:22:41.781Z,1.30
2019-05-13T14:25:42.032Z,1.30
2019-05-13T14:28:17.673Z,1.60
2019-05-13T14:30:46.769Z,1.70
2019-05-13T14:33:18.813Z,1.20
2019-05-13T14:35:49.319Z,1.37
2019-05-13T14:38:22.340Z,1.37
2019-05-13T14:40:52.788Z,1.87
2019-05-13T14:43:24.143Z,1.50
2019-05-13T14:45:55.531Z,1.40
2019-05-13T14:48:26.037Z,1.50
2019-05-13T14:50:58.982Z,1.20
2019-05-13T14:53:28.747Z,1.60
2019-05-13T14:55:59.313Z,1.33
2019-05-13T14:58:32.472Z,1.33
2019-05-13T15:01:14.791Z,1.40
2019-05-13T15:03:34.618Z,1.30
2019-05-13T15:06:05.474Z,1.10
2019-05-13T15:08:36.373Z,1.53
2019-05-13T15:11:07.282Z,1.70
2019-05-13T15:13:38.225Z,1.60
2019-05-13T15:16:08.752Z,1.20
2019-05-13T15:18:48.329Z,1.17
2019-05-13T15:21:21.236Z,1.60
2019-05-13T15:23:51.721Z,1.70
2019-05-13T15:26:23.184Z,1.50
2019-05-13T15:28:53.866Z,1.63
2019-05-13T15:31:24.401Z,1.50
2019-05-13T15:33:54.988Z,2.00
2019-05-13T15:36:25.548Z,1.57
2019-05-13T15:38:56.236Z,1.50
2019-05-13T15:41:27.282Z,1.17
2019-05-13T15:44:03.408Z,1.17
2019-05-13T15:46:34.687Z,1.40
2019-05-13T15:49:05.776Z,1.47
2019-05-13T15:51:36.314Z,1.60
2019-05-13T15:54:08.581Z,1.13
2019-05-13T15:56:39.052Z,1.37
2019-05-13T15:59:12.227Z,1.20
2019-05-13T16:01:41.756Z,1.30
2019-05-13T16:04:13.850Z,1.10
2019-05-13T16:06:44.434Z,1.53
2019-05-13T16:09:15.734Z,1.70
2019-05-13T16:11:46.416Z,1.20
2019-05-13T16:14:17.992Z,1.30
2019-05-13T16:16:48.661Z,1.53
2019-05-13T16:19:21.963Z,1.73
2019-05-13T16:21:52.159Z,1.00
2019-05-13T16:24:22.771Z,1.00
2019-05-13T16:26:53.658Z,1.30
2019-05-13T16:29:24.166Z,1.20
2019-05-13T16:31:55.070Z,1.27
2019-05-13T16:34:25.618Z,1.50
2019-05-13T16:36:56.494Z,1.20
2019-05-13T16:39:27.354Z,1.10
2019-05-13T16:41:58.361Z,1.13
2019-05-13T16:44:31.828Z,1.07
2019-05-13T16:47:02.230Z,1.60
2019-05-13T16:49:32.710Z,1.10
2019-05-13T16:52:03.461Z,1.20
2019-05-13T16:54:33.942Z,1.20
2019-05-13T16:57:04.472Z,1.00
2019-05-13T16:59:55.496Z,1.10
2019-05-13T17:02:26.018Z,1.00
2019-05-13T17:04:58.225Z,1.10
2019-05-13T17:07:28.797Z,1.00
2019-05-13T17:10:01.095Z,0.90
2019-05-13T17:12:32.581Z,1.10
2019-05-13T17:15:03.232Z,1.00
2019-05-13T17:17:34.305Z,1.00
2019-05-13T17:20:05.360Z,1.10
2019-05-13T17:22:36.031Z,1.20
2019-05-13T17:25:06.708Z,0.90
2019-05-13T17:27:37.771Z,0.93
2019-05-13T17:30:11.508Z,1.50
2019-05-13T17:32:42.317Z,1.37
2019-05-13T17:35:14.184Z,1.53
2019-05-13T17:37:45.212Z,1.30
2019-05-13T17:40:15.825Z,1.30
2019-05-13T17:42:46.410Z,1.60
2019-05-13T17:45:17.684Z,1.20
2019-05-13T17:47:48.324Z,1.60
2019-05-13T17:50:19.313Z,1.50
2019-05-13T17:52:51.382Z,1.80
2019-05-13T17:55:22.418Z,1.90
2019-05-13T17:57:53.831Z,1.67
2019-05-13T18:00:25.024Z,1.60
2019-05-13T18:02:55.597Z,1.40
2019-05-13T18:05:26.698Z,1.67
2019-05-13T18:07:57.529Z,1.03
2019-05-13T18:10:28.075Z,1.30
2019-05-13T18:12:58.831Z,1.10
2019-05-13T18:15:31.432Z,1.37
2019-05-13T18:18:02.070Z,1.00
2019-05-13T18:20:32.614Z,1.30
2019-05-13T18:23:03.185Z,1.30
2019-05-13T18:25:34.769Z,1.27
2019-05-13T18:28:05.252Z,1.43
2019-05-13T18:30:36.233Z,1.10
2019-05-13T18:33:06.732Z,1.17
2019-05-13T18:35:37.189Z,1.20
2019-05-13T18:38:08.072Z,1.10
2019-05-13T18:40:38.998Z,1.23
2019-05-13T18:43:09.628Z,0.90
2019-05-13T18:45:41.940Z,0.80
2019-05-13T18:48:14.085Z,1.27
2019-05-13T18:50:45.752Z,1.03
2019-05-13T18:53:16.176Z,1.00
2019-05-13T18:55:46.588Z,1.20
2019-05-13T18:58:17.493Z,1.47
2019-05-13T19:00:48.396Z,1.17
2019-05-13T19:03:21.801Z,0.90
2019-05-13T19:05:52.901Z,1.30
2019-05-13T19:08:23.689Z,1.00
2019-05-13T19:10:54.737Z,1.20
2019-05-13T19:13:25.305Z,1.10
2019-05-13T19:15:56.666Z,0.93
2019-05-13T19:18:27.363Z,1.00
2019-05-13T19:20:58.649Z,1.10
2019-05-13T19:23:31.313Z,1.10
2019-05-13T19:26:02.412Z,1.20
2019-05-13T19:28:33.103Z,0.90
2019-05-13T19:31:04.272Z,1.00
2019-05-13T19:33:35.107Z,1.20
2019-05-13T19:36:05.811Z,1.17
2019-05-13T19:38:36.535Z,1.10
2019-05-13T19:41:07.849Z,1.17
2019-05-13T19:43:38.523Z,1.20
2019-05-13T19:46:09.171Z,1.30
2019-05-13T19:48:41.746Z,1.70
2019-05-13T19:51:14.943Z,1.37
2019-05-13T19:53:46.736Z,1.20
2019-05-13T19:56:17.798Z,1.27
2019-05-13T19:58:48.805Z,1.80
2019-05-13T20:01:21.717Z,1.47
2019-05-13T20:03:53.523Z,1.23
2019-05-13T20:06:25.024Z,1.20
2019-05-13T20:08:56.117Z,1.27
2019-05-13T20:11:26.733Z,1.10
2019-05-13T20:13:58.072Z,1.47
2019-05-13T20:16:29.033Z,1.20
2019-05-13T20:19:01.248Z,1.10
2019-05-13T20:21:32.476Z,1.13
2019-05-13T20:24:03.166Z,1.40
2019-05-13T20:26:35.543Z,1.33
2019-05-13T20:29:06.131Z,1.57
2019-05-13T20:31:37.021Z,1.73
2019-05-13T20:34:11.635Z,2.17
2019-05-13T20:36:44.324Z,2.33
2019-05-13T20:39:15.467Z,2.40
2019-05-13T20:41:46.901Z,2.40
2019-05-13T20:44:26.173Z,2.10
2019-05-13T20:46:56.840Z,2.07
2019-05-13T20:49:28.480Z,1.80
2019-05-13T20:51:59.774Z,1.70
2019-05-13T20:54:31.479Z,2.17
2019-05-13T20:57:14.314Z,2.20
2019-05-13T20:59:51.518Z,1.70
2019-05-13T21:02:22.279Z,1.70
2019-05-13T21:04:53.303Z,1.37
2019-05-13T21:07:52.578Z,1.53
2019-05-13T21:10:26.620Z,1.97
2019-05-13T21:12:57.558Z,1.70
2019-05-13T21:15:28.748Z,1.80
2019-05-13T21:17:59.513Z,1.57
2019-05-13T21:20:31.963Z,1.60
2019-05-13T21:23:03.189Z,1.63
2019-05-13T21:25:34.189Z,1.50
2019-05-13T21:28:05.236Z,1.60
2019-05-13T21:30:35.875Z,1.50
2019-05-13T21:33:06.435Z,1.60
2019-05-13T21:35:37.057Z,1.77
2019-05-13T21:38:08.440Z,1.70
2019-05-13T21:40:41.482Z,1.60
2019-05-13T21:43:11.966Z,1.83
2019-05-13T21:45:43.483Z,1.83
2019-05-13T21:48:14.895Z,1.70
2019-05-13T21:50:45.740Z,1.90
2019-05-13T21:53:16.809Z,1.43
2019-05-13T21:55:47.385Z,1.70
2019-05-13T21:58:17.962Z,2.37
2019-05-13T22:00:49.008Z,1.80
2019-05-13T22:03:20.484Z,1.60
2019-05-13T22:05:51.663Z,1.80
2019-05-13T22:08:23.139Z,1.70
2019-05-13T22:10:53.699Z,1.77
2019-05-13T22:13:27.339Z,1.60
2019-05-13T22:15:58.277Z,1.50
2019-05-13T22:18:31.348Z,1.73
2019-05-13T22:21:02.998Z,1.67
2019-05-13T22:23:33.658Z,1.80
2019-05-13T22:26:04.708Z,1.77
2019-05-13T22:28:35.425Z,1.80
2019-05-13T22:31:08.298Z,2.30
2019-05-13T22:33:41.123Z,2.10
2019-05-13T22:36:11.875Z,1.93
2019-05-13T22:38:44.361Z,1.60
2019-05-13T22:41:15.396Z,1.63
2019-05-13T22:43:57.567Z,1.53
2019-05-13T22:46:21.233Z,1.83
2019-05-13T22:48:52.639Z,1.77
2019-05-13T22:51:24.343Z,1.50
2019-05-13T22:53:55.477Z,1.63
2019-05-13T22:56:32.373Z,1.67
2019-05-13T22:59:22.638Z,1.67
2019-05-13T23:01:56.502Z,1.40
2019-05-13T23:04:27.943Z,1.43
2019-05-13T23:07:01.137Z,1.70
2019-05-13T23:09:32.306Z,2.00
2019-05-13T23:12:03.839Z,1.33
2019-05-13T23:14:34.479Z,1.87
2019-05-13T23:17:05.010Z,1.87
2019-05-13T23:19:36.082Z,2.07
2019-05-13T23:22:06.817Z,1.87
2019-05-13T23:24:37.454Z,1.70
2019-05-13T23:27:08.032Z,1.50
2019-05-13T23:29:38.614Z,1.57
2019-05-13T23:32:09.100Z,1.80
2019-05-13T23:34:42.027Z,1.57
2019-05-13T23:37:11.814Z,1.90
2019-05-13T23:39:42.353Z,1.83
2019-05-13T23:42:13.928Z,2.07
2019-05-13T23:44:44.450Z,1.70
2019-05-13T23:47:15.066Z,1.90
2019-05-13T23:49:45.604Z,1.70
2019-05-13T23:52:16.169Z,1.80
2019-05-13T23:54:47.277Z,1.83
2019-05-13T23:57:17.780Z,1.63
2019-05-13T23:59:48.314Z,2.00
